createdAt,value
2023-05-10T00:00:59.390Z,100355.50
2023-05-10T00:06:02.583Z,100357.50
2023-05-10T00:11:06.036Z,100350.03
2023-05-10T00:16:09.105Z,100343.72
2023-05-10T00:21:12.091Z,100351.69
2023-05-10T00:26:15.206Z,100341.09
2023-05-10T00:31:18.106Z,100341.91
2023-05-10T00:36:22.008Z,100341.41
2023-05-10T00:41:24.980Z,100335.22
2023-05-10T00:46:29.599Z,100341.19
2023-05-10T00:51:33.061Z,100349.44
2023-05-10T00:56:36.384Z,100329.63
2023-05-10T01:01:40.107Z,100337.91
2023-05-10T01:06:44.315Z,100335.00
2023-05-10T01:11:48.576Z,100323.84
2023-05-10T01:16:52.337Z,100330.47
2023-05-10T01:22:32.697Z,100337.56
2023-05-10T01:27:57.587Z,100335.84
2023-05-10T01:33:12.792Z,100335.97
2023-05-10T01:38:48.651Z,100333.41
2023-05-10T01:44:21.645Z,100340.03
2023-05-10T01:49:31.870Z,100331.00
2023-05-10T01:54:36.809Z,100330.34
2023-05-10T01:59:41.994Z,100330.03
2023-05-10T02:04:47.395Z,100319.47
2023-05-10T02:09:51.975Z,100318.84
2023-05-10T02:14:55.549Z,100312.25
2023-05-10T02:20:01.001Z,100310.63
2023-05-10T02:25:05.544Z,100305.69
2023-05-10T02:30:10.511Z,100308.53
2023-05-10T02:35:13.915Z,100301.44
2023-05-10T02:40:18.935Z,100305.78
2023-05-10T02:45:29.205Z,100310.47
2023-05-10T02:50:34.973Z,100307.63
2023-05-10T02:55:42.766Z,100309.00
2023-05-10T03:00:47.252Z,100312.84
2023-05-10T03:05:50.176Z,100307.53
2023-05-10T03:11:34.402Z,100317.97
2023-05-10T03:16:58.854Z,100313.78
2023-05-10T03:22:09.789Z,100305.16
2023-05-10T03:27:15.413Z,100303.88
2023-05-10T03:32:18.582Z,100312.84
2023-05-10T03:37:21.595Z,100308.50
2023-05-10T03:42:24.715Z,100310.81
2023-05-10T03:47:27.702Z,100315.44
2023-05-10T03:52:31.227Z,100307.63
2023-05-10T03:57:34.933Z,100319.09
2023-05-10T04:02:38.611Z,100316.91
2023-05-10T04:07:41.673Z,100311.41
2023-05-10T04:12:44.858Z,100304.78
2023-05-10T04:17:48.312Z,100310.75
2023-05-10T04:22:51.374Z,100308.09
2023-05-10T04:27:54.423Z,100315.06
2023-05-10T04:32:57.448Z,100321.66
2023-05-10T04:38:00.499Z,100325.31
2023-05-10T04:43:03.613Z,100316.53
2023-05-10T04:48:06.918Z,100319.69
2023-05-10T04:53:09.936Z,100316.56
2023-05-10T04:58:12.947Z,100319.09
2023-05-10T05:03:16.065Z,100321.97
2023-05-10T05:08:19.662Z,100313.38
2023-05-10T05:13:22.930Z,100320.44
2023-05-10T05:18:26.123Z,100319.94
2023-05-10T05:23:29.195Z,100326.28
2023-05-10T05:28:35.486Z,100330.94
2023-05-10T05:33:38.576Z,100326.78
2023-05-10T05:38:41.642Z,100327.13
2023-05-10T05:43:44.674Z,100332.06
2023-05-10T05:48:47.598Z,100329.59
2023-05-10T05:53:51.168Z,100339.06
2023-05-10T05:58:54.293Z,100342.75
2023-05-10T06:03:57.343Z,100349.66
2023-05-10T06:09:00.315Z,100342.88
2023-05-10T06:14:08.810Z,100340.41
2023-05-10T06:19:11.790Z,100343.69
2023-05-10T06:24:14.757Z,100329.81
2023-05-10T06:29:17.882Z,100336.28
2023-05-10T06:34:21.079Z,100340.91
2023-05-10T06:39:24.049Z,100335.66
2023-05-10T06:44:27.031Z,100341.66
2023-05-10T06:49:29.949Z,100332.34
2023-05-10T06:54:32.985Z,100330.22
2023-05-10T06:59:37.696Z,100324.41
2023-05-10T07:04:41.025Z,100327.91
2023-05-10T07:09:44.460Z,100325.59
2023-05-10T07:14:47.842Z,100327.16
2023-05-10T07:19:51.078Z,100332.28
2023-05-10T07:24:54.325Z,100328.25
2023-05-10T07:29:57.641Z,100327.00
2023-05-10T07:35:00.758Z,100319.34
2023-05-10T07:40:03.998Z,100329.25
2023-05-10T07:45:07.866Z,100318.50
2023-05-10T07:50:11.107Z,100324.75
2023-05-10T07:55:15.843Z,100319.16
2023-05-10T08:00:21.163Z,100319.63
2023-05-10T08:05:24.193Z,100322.75
2023-05-10T08:10:27.351Z,100318.47
2023-05-10T08:15:30.501Z,100316.78
2023-05-10T08:20:33.577Z,100316.84
2023-05-10T08:25:37.167Z,100312.75
2023-05-10T08:30:40.750Z,100316.41
2023-05-10T08:35:43.789Z,100312.78
2023-05-10T08:40:47.812Z,100312.28
2023-05-10T08:45:52.729Z,100310.88
2023-05-10T08:50:57.432Z,100306.59
2023-05-10T08:56:02.269Z,100305.84
2023-05-10T09:01:07.051Z,100300.84
2023-05-10T09:06:10.129Z,100304.31
2023-05-10T09:11:14.244Z,100301.63
2023-05-10T09:16:21.607Z,100301.94
2023-05-10T09:21:26.107Z,100310.06
2023-05-10T09:26:29.108Z,100303.69
2023-05-10T09:31:55.555Z,100299.84
2023-05-10T09:37:05.378Z,100302.53
2023-05-10T09:42:10.736Z,100299.03
2023-05-10T09:47:20.109Z,100298.56
2023-05-10T09:52:23.390Z,100287.41
2023-05-10T09:57:27.405Z,100288.47
2023-05-10T10:02:30.569Z,100278.97
2023-05-10T10:07:33.888Z,100271.91
2023-05-10T10:12:38.779Z,100265.25
2023-05-10T10:17:44.390Z,100263.34
2023-05-10T10:22:48.855Z,100261.53
2023-05-10T10:27:55.029Z,100259.09
2023-05-10T10:33:48.280Z,100258.63
2023-05-10T10:39:02.296Z,100253.59
2023-05-10T10:44:27.055Z,100242.25
2023-05-10T10:49:44.682Z,100249.13
2023-05-10T10:55:11.876Z,100223.50
2023-05-10T11:00:46.646Z,100229.25
2023-05-10T11:05:52.110Z,100212.06
2023-05-10T11:11:02.350Z,100216.41
2023-05-10T11:16:28.174Z,100205.56
2023-05-10T11:21:35.599Z,100201.38
2023-05-10T11:26:38.749Z,100209.81
2023-05-10T11:31:47.694Z,100200.72
2023-05-10T11:36:57.608Z,100201.94
2023-05-10T11:42:01.228Z,100195.69
2023-05-10T11:47:04.583Z,100194.47
2023-05-10T11:52:09.328Z,100193.22
2023-05-10T11:57:12.562Z,100188.72
2023-05-10T12:02:16.231Z,100193.03
2023-05-10T12:07:19.240Z,100183.06
2023-05-10T12:12:22.270Z,100185.69
2023-05-10T12:17:29.953Z,100186.22
2023-05-10T12:22:36.298Z,100171.13
2023-05-10T12:27:39.439Z,100178.16
2023-05-10T12:32:43.360Z,100170.34
2023-05-10T12:37:46.456Z,100168.78
2023-05-10T12:42:49.876Z,100158.88
2023-05-10T12:47:52.976Z,100164.22
2023-05-10T12:52:56.040Z,100158.19
2023-05-10T12:57:58.957Z,100152.19
2023-05-10T13:03:02.042Z,100143.13
2023-05-10T13:08:05.489Z,100141.06
2023-05-10T13:13:09.494Z,100138.22
2023-05-10T13:18:12.503Z,100133.72
2023-05-10T13:23:15.288Z,100131.25
2023-05-10T13:28:18.203Z,100111.72
2023-05-10T13:33:21.153Z,100107.06
2023-05-10T13:38:24.177Z,100101.91
2023-05-10T13:43:27.008Z,100100.03
2023-05-10T13:48:30.117Z,100099.91
2023-05-10T13:53:33.220Z,100097.00
2023-05-10T13:58:37.489Z,100081.63
2023-05-10T14:03:41.148Z,100083.41
2023-05-10T14:08:44.336Z,100075.50
2023-05-10T14:13:47.581Z,100071.81
2023-05-10T14:18:50.586Z,100068.47
2023-05-10T14:23:53.588Z,100069.41
2023-05-10T14:28:56.600Z,100059.00
2023-05-10T14:34:00.246Z,100061.22
2023-05-10T14:39:03.880Z,100065.13
2023-05-10T14:44:06.965Z,100056.38
2023-05-10T14:49:09.978Z,100056.53
2023-05-10T14:54:12.936Z,100054.97
2023-05-10T14:59:15.952Z,100063.22
2023-05-10T15:04:19.251Z,100065.75
2023-05-10T15:09:22.657Z,100060.50
2023-05-10T15:14:25.692Z,100056.84
2023-05-10T15:19:30.212Z,100063.13
2023-05-10T15:24:33.270Z,100055.59
2023-05-10T15:29:36.911Z,100052.81
2023-05-10T15:34:39.838Z,100056.19
2023-05-10T15:39:42.740Z,100056.16
2023-05-10T15:44:46.094Z,100056.34
2023-05-10T15:49:49.019Z,100048.47
2023-05-10T15:54:52.333Z,100061.88
2023-05-10T15:59:56.378Z,100049.88
2023-05-10T16:04:59.872Z,100057.84
2023-05-10T16:10:04.253Z,100051.06
2023-05-10T16:15:08.798Z,100056.75
2023-05-10T16:20:12.132Z,100048.97
2023-05-10T16:25:15.517Z,100055.00
2023-05-10T16:30:18.940Z,100061.66
2023-05-10T16:35:23.546Z,100061.06
2023-05-10T16:40:26.607Z,100052.19
2023-05-10T16:45:32.707Z,100061.09
2023-05-10T16:50:35.715Z,100072.03
2023-05-10T16:55:38.462Z,100068.09
2023-05-10T17:00:41.469Z,100077.81
2023-05-10T17:05:44.649Z,100081.09
2023-05-10T17:10:47.626Z,100081.09
2023-05-10T17:15:50.604Z,100085.47
2023-05-10T17:20:53.649Z,100088.47
2023-05-10T17:25:56.486Z,100095.31
2023-05-10T17:31:00.179Z,100100.53
2023-05-10T17:36:05.995Z,100100.59
2023-05-10T17:41:08.899Z,100095.44
2023-05-10T17:46:12.912Z,100103.97
2023-05-10T17:51:16.060Z,100113.00
2023-05-10T17:56:19.140Z,100118.81
2023-05-10T18:01:22.363Z,100122.13
2023-05-10T18:06:26.390Z,100119.03
2023-05-10T18:11:29.431Z,100115.75
2023-05-10T18:16:32.506Z,100134.91
2023-05-10T18:21:35.879Z,100135.75
2023-05-10T18:26:38.800Z,100135.97
2023-05-10T18:31:41.944Z,100142.09
2023-05-10T18:36:45.214Z,100149.28
2023-05-10T18:41:48.284Z,100153.59
2023-05-10T18:46:54.074Z,100158.88
2023-05-10T18:51:57.216Z,100160.25
2023-05-10T18:57:00.158Z,100172.09
2023-05-10T19:02:03.337Z,100173.28
2023-05-10T19:07:06.328Z,100176.66
2023-05-10T19:12:09.268Z,100180.25
2023-05-10T19:17:13.377Z,100183.88
2023-05-10T19:22:17.731Z,100190.97
2023-05-10T19:27:23.052Z,100181.22
2023-05-10T19:32:26.068Z,100182.19
2023-05-10T19:37:29.110Z,100188.88
2023-05-10T19:42:32.137Z,100188.19
2023-05-10T19:47:36.425Z,100188.31
2023-05-10T19:52:39.435Z,100187.16
2023-05-10T19:57:42.265Z,100181.88
2023-05-10T20:02:45.288Z,100183.19
2023-05-10T20:07:48.340Z,100181.66
2023-05-10T20:12:52.909Z,100180.72
2023-05-10T20:17:56.376Z,100186.19
2023-05-10T20:22:59.420Z,100191.53
2023-05-10T20:28:02.398Z,100188.56
2023-05-10T20:33:05.650Z,100188.31
2023-05-10T20:38:08.751Z,100187.19
2023-05-10T20:43:11.964Z,100187.09
2023-05-10T20:48:15.146Z,100194.09
2023-05-10T20:53:19.071Z,100189.13
2023-05-10T20:58:22.154Z,100192.94
2023-05-10T21:03:25.038Z,100188.78
2023-05-10T21:08:28.018Z,100175.78
2023-05-10T21:13:31.860Z,100181.13
2023-05-10T21:18:34.806Z,100182.78
2023-05-10T21:23:38.245Z,100178.63
2023-05-10T21:28:42.405Z,100182.50
2023-05-10T21:33:46.254Z,100175.88
2023-05-10T21:38:50.576Z,100180.00
2023-05-10T21:43:53.663Z,100178.16
2023-05-10T21:48:56.825Z,100181.56
2023-05-10T21:54:01.040Z,100182.03
2023-05-10T21:59:05.086Z,100182.88
2023-05-10T22:04:08.100Z,100189.78
2023-05-10T22:09:11.084Z,100187.09
2023-05-10T22:14:14.035Z,100181.56
2023-05-10T22:19:17.202Z,100197.59
2023-05-10T22:24:20.144Z,100187.94
2023-05-10T22:29:23.967Z,100189.56
2023-05-10T22:34:26.916Z,100187.09
2023-05-10T22:39:29.950Z,100188.56
2023-05-10T22:44:32.825Z,100190.41
2023-05-10T22:49:36.217Z,100198.25
2023-05-10T22:54:39.194Z,100201.00
2023-05-10T22:59:42.492Z,100191.50
2023-05-10T23:04:45.399Z,100197.22
2023-05-10T23:09:48.927Z,100195.09
2023-05-10T23:14:51.954Z,100184.34
2023-05-10T23:19:54.843Z,100197.22
2023-05-10T23:24:58.873Z,100195.19
2023-05-10T23:30:01.789Z,100194.78
2023-05-10T23:35:06.667Z,100196.63
2023-05-10T23:40:11.786Z,100202.38
2023-05-10T23:45:14.784Z,100205.66
2023-05-10T23:50:18.210Z,100211.69
2023-05-10T23:55:21.509Z,100205.25
